Time;durP1;ratioP1;P1;durP2;ratioP2;P2;SDS_P1;SDS_P2;PMS_P1;PMS_P2;Temp;Humidity;BMP_temperature;BMP_pressure;BME280_temperature;BME280_humidity;BME280_pressure;Samples;Min_cycle;Max_cycle;Signal;HPM_P1;HPM_P2
2023/01/26 00:02:10;;;;;;;0.60;0.60;;;1.30;99.90;;;;;;5044186;28;20037;-87
2023/01/26 00:04:36;;;;;;;0.80;0.80;;;-0.20;99.90;;;;;;5046092;28;20120;-86
2023/01/26 00:07:01;;;;;;;2.97;2.78;;;1.00;99.90;;;;;;5028554;28;20037;-87
2023/01/26 00:09:27;;;;;;;0.90;0.90;;;0.80;99.90;;;;;;5027925;28;20124;-88
2023/01/26 00:11:53;;;;;;;1.15;1.10;;;-0.10;99.90;;;;;;5048199;28;20044;-86
2023/01/26 00:14:18;;;;;;;0.60;0.60;;;-0.20;99.90;;;;;;5042088;28;20114;-86
2023/01/26 00:16:44;;;;;;;1.00;1.00;;;1.10;99.90;;;;;;5032219;28;20049;-85
2023/01/26 00:19:10;;;;;;;0.73;0.73;;;1.10;99.90;;;;;;5028023;28;20033;-85
2023/01/26 00:21:35;;;;;;;1.60;1.50;;;-0.20;99.90;;;;;;5032938;28;20059;-85
2023/01/26 00:24:01;;;;;;;0.95;0.95;;;1.10;99.90;;;;;;5033410;28;20123;-86
2023/01/26 00:26:27;;;;;;;1.00;1.00;;;0.60;99.90;;;;;;5029357;28;20040;-87
2023/01/26 00:28:54;;;;;;;1.65;1.55;;;1.50;99.90;;;;;;5026552;28;20091;-87
2023/01/26 00:31:26;;;;;;;0.90;0.90;;;-0.20;99.90;;;;;;5030554;28;20163;-86
2023/01/26 00:33:55;;;;;;;0.75;0.75;;;-0.20;99.90;;;;;;5029097;28;20072;-86
2023/01/26 00:36:21;;;;;;;1.83;0.98;;;-0.20;99.90;;;;;;5042732;28;20061;-86
2023/01/26 00:38:47;;;;;;;0.75;0.75;;;-0.20;99.90;;;;;;5014499;28;20506;-86
2023/01/26 00:43:57;;;;;;;0.70;0.70;;;-0.10;99.90;;;;;;5033964;28;20037;-87
2023/01/26 00:46:23;;;;;;;1.08;1.08;;;-0.10;99.90;;;;;;5029610;28;20049;-86
2023/01/26 00:48:49;;;;;;;0.80;0.80;;;-0.10;99.90;;;;;;5045101;28;20044;-85
2023/01/26 00:51:14;;;;;;;0.70;0.70;;;1.60;99.90;;;;;;5041689;28;20041;-86
2023/01/26 00:53:40;;;;;;;1.35;1.27;;;-0.10;99.90;;;;;;5027328;28;20041;-86
2023/01/26 00:56:06;;;;;;;0.70;0.70;;;0.40;99.90;;;;;;5041296;28;20489;-87
2023/01/26 00:58:32;;;;;;;1.38;1.27;;;-0.10;99.90;;;;;;5037605;28;20038;-86
2023/01/26 01:00:57;;;;;;;0.68;0.68;;;-0.10;99.90;;;;;;5026145;28;20078;-86
2023/01/26 01:03:23;;;;;;;0.70;0.70;;;-0.10;99.90;;;;;;5044056;28;20037;-86
2023/01/26 01:05:49;;;;;;;5.43;3.70;;;-0.10;99.90;;;;;;5012282;28;20053;-86
2023/01/26 01:08:14;;;;;;;3.60;1.52;;;1.50;99.90;;;;;;5028973;28;20589;-86
2023/01/26 01:10:40;;;;;;;0.60;0.60;;;-0.10;99.90;;;;;;5047622;28;20506;-86
2023/01/26 01:13:06;;;;;;;0.70;0.70;;;-0.10;99.90;;;;;;5029579;28;20066;-87
2023/01/26 01:15:31;;;;;;;1.20;1.20;;;-0.10;99.90;;;;;;5032797;28;20045;-87
2023/01/26 01:17:57;;;;;;;1.10;1.10;;;-0.10;99.90;;;;;;5055356;28;20049;-85
2023/01/26 01:20:23;;;;;;;0.60;0.60;;;-0.10;99.90;;;;;;5047927;28;20068;-85
2023/01/26 01:22:51;;;;;;;2.78;1.95;;;1.70;99.90;;;;;;5029025;28;20080;-85
2023/01/26 01:25:16;;;;;;;0.65;0.65;;;0.00;99.90;;;;;;5039667;28;21576;-85
2023/01/26 01:27:42;;;;;;;0.90;0.90;;;0.00;99.90;;;;;;5041363;28;20033;-86
2023/01/26 01:30:08;;;;;;;1.15;1.05;;;0.00;99.90;;;;;;5030907;28;20135;-87
2023/01/26 01:32:35;;;;;;;0.80;0.75;;;0.00;99.90;;;;;;5031654;28;20053;-86
2023/01/26 01:35:00;;;;;;;;;;;0.00;99.90;;;;;;5037613;28;20025;-86
2023/01/26 01:37:29;;;;;;;1.92;1.88;;;1.40;99.90;;;;;;5056443;28;20364;-86
2023/01/26 01:39:54;;;;;;;0.63;0.63;;;0.00;99.90;;;;;;5025762;28;20075;-85
2023/01/26 01:42:21;;;;;;;0.70;0.70;;;1.90;99.90;;;;;;5015270;28;20479;-87
2023/01/26 01:45:25;;;;;;;1.25;1.23;;;0.00;99.90;;;;;;5009190;28;20488;-87
2023/01/26 01:47:54;;;;;;;0.73;0.73;;;0.00;99.90;;;;;;5043761;28;20044;-86
2023/01/26 01:50:20;;;;;;;0.70;0.70;;;0.00;99.90;;;;;;5048173;28;20048;-86
2023/01/26 01:52:46;;;;;;;2.20;2.10;;;0.00;99.90;;;;;;5031802;28;20037;-85
2023/01/26 01:55:14;;;;;;;;;;;0.30;99.90;;;;;;5027094;28;20033;-86
2023/01/26 01:57:46;;;;;;;0.60;0.60;;;0.90;99.90;;;;;;5040711;28;19917;-86
2023/01/26 02:00:15;;;;;;;0.60;0.60;;;0.10;99.90;;;;;;5032254;28;20040;-86
2023/01/26 02:03:09;;;;;;;1.83;1.73;;;0.00;99.90;;;;;;5047829;28;20080;-87
2023/01/26 02:05:34;;;;;;;2.80;1.70;;;1.70;99.90;;;;;;5041490;28;20052;-86
2023/01/26 02:08:01;;;;;;;0.80;0.80;;;0.00;99.90;;;;;;5028030;28;21548;-86
2023/01/26 02:10:28;;;;;;;2.60;1.48;;;0.10;99.90;;;;;;5042110;28;20049;-86
2023/01/26 02:12:55;;;;;;;0.70;0.70;;;1.30;99.90;;;;;;5046099;28;20040;-86
2023/01/26 02:15:22;;;;;;;0.60;0.60;;;0.70;99.90;;;;;;5016008;28;20042;-86
2023/01/26 02:17:51;;;;;;;0.50;0.50;;;0.10;99.90;;;;;;5049625;28;20043;-85
2023/01/26 02:20:30;;;;;;;1.92;1.75;;;0.10;99.90;;;;;;5046967;28;20390;-84
2023/01/26 02:23:05;;;;;;;1.08;1.08;;;0.10;99.90;;;;;;5021296;28;20072;-84
2023/01/26 02:25:49;;;;;;;0.60;0.60;;;0.80;99.90;;;;;;5020466;28;20040;-85
2023/01/26 02:28:15;;;;;;;1.30;1.20;;;0.20;99.90;;;;;;5046872;28;20098;-85
2023/01/26 02:30:41;;;;;;;2.35;2.20;;;0.20;99.90;;;;;;5029375;28;20120;-87
2023/01/26 02:33:13;;;;;;;0.52;0.52;;;0.50;99.90;;;;;;5042919;28;20135;-85
2023/01/26 02:35:38;;;;;;;0.57;0.57;;;0.20;99.90;;;;;;5039975;28;20502;-86
2023/01/26 02:38:04;;;;;;;0.70;0.70;;;0.20;99.90;;;;;;5047015;28;20116;-86
2023/01/26 02:40:56;;;;;;;1.30;1.30;;;0.30;99.90;;;;;;5032297;28;20052;-86
2023/01/26 02:43:25;;;;;;;0.73;0.73;;;0.20;99.90;;;;;;5041167;28;20044;-84
2023/01/26 02:45:51;;;;;;;0.57;0.57;;;1.10;99.90;;;;;;5048022;28;20049;-85
2023/01/26 02:51:03;;;;;;;0.70;0.70;;;0.30;99.90;;;;;;5026810;28;19917;-86
2023/01/26 02:53:29;;;;;;;0.50;0.50;;;0.30;99.90;;;;;;5008549;28;20147;-88
2023/01/26 02:55:54;;;;;;;0.98;0.98;;;2.40;99.90;;;;;;5009562;28;20053;-85
2023/01/26 02:58:20;;;;;;;0.77;0.77;;;0.90;99.90;;;;;;5007616;28;20045;-88
2023/01/26 03:00:46;;;;;;;0.60;0.60;;;1.20;99.90;;;;;;5023126;28;20427;-89
2023/01/26 03:03:18;;;;;;;0.70;0.70;;;0.40;99.90;;;;;;5043148;28;20395;-88
2023/01/26 03:05:45;;;;;;;1.00;1.00;;;2.20;99.90;;;;;;5047388;28;20041;-87
2023/01/26 03:08:11;;;;;;;0.77;0.77;;;0.40;99.90;;;;;;5023118;28;20037;-86
2023/01/26 03:10:36;;;;;;;0.75;0.75;;;1.40;99.90;;;;;;5047396;28;20143;-87
2023/01/26 03:13:03;;;;;;;2.05;1.95;;;0.80;99.90;;;;;;5023494;28;20033;-84
2023/01/26 03:15:41;;;;;;;0.60;0.60;;;0.40;99.90;;;;;;5044047;28;20379;-85
2023/01/26 03:27:25;;;;;;;0.70;0.70;;;0.40;99.90;;;;;;5036480;28;20045;-85
2023/01/26 03:29:18;;;;;;;1.63;1.52;;;0.40;99.90;;;;;;5046391;28;20037;-86
2023/01/26 03:31:44;;;;;;;0.80;0.80;;;0.50;99.90;;;;;;5051451;28;20053;-87
2023/01/26 03:34:10;;;;;;;0.60;0.60;;;0.50;99.90;;;;;;5044969;28;20132;-86
2023/01/26 03:36:36;;;;;;;0.65;0.65;;;0.50;99.90;;;;;;5027110;28;20069;-87
2023/01/26 03:39:03;;;;;;;;;;;0.50;99.90;;;;;;5018814;28;20067;-87
2023/01/26 03:57:53;;;;;;;1.42;1.38;;;0.70;99.90;;;;;;5050762;28;20072;-84
2023/01/26 04:00:20;;;;;;;0.68;0.68;;;1.20;99.90;;;;;;5032513;28;20486;-88
2023/01/26 04:08:25;;;;;;;1.02;1.00;;;1.50;99.90;;;;;;5062737;28;20067;-88
2023/01/26 04:10:53;;;;;;;0.70;0.70;;;0.70;99.90;;;;;;5020048;28;20034;-88
2023/01/26 04:21:41;;;;;;;0.75;0.75;;;1.70;99.90;;;;;;5030552;28;20084;-88
2023/01/26 04:24:08;;;;;;;0.50;0.50;;;0.80;99.90;;;;;;5057352;28;20021;-87
2023/01/26 04:26:35;;;;;;;0.80;0.80;;;0.80;99.90;;;;;;5039237;28;20033;-88
2023/01/26 04:29:09;;;;;;;0.70;0.70;;;0.80;99.90;;;;;;5055574;28;20037;-88
2023/01/26 04:31:34;;;;;;;0.98;0.90;;;0.80;99.90;;;;;;5023996;28;20053;-87
2023/01/26 04:34:02;;;;;;;1.75;1.65;;;0.80;99.90;;;;;;5025940;28;20043;-88
2023/01/26 04:36:28;;;;;;;0.60;0.60;;;1.20;99.90;;;;;;5034776;28;20055;-88
2023/01/26 04:38:54;;;;;;;0.70;0.70;;;0.90;99.90;;;;;;5036245;28;20435;-88
2023/01/26 04:41:20;;;;;;;0.60;0.60;;;1.80;99.90;;;;;;5025468;28;20136;-88
2023/01/26 04:43:46;;;;;;;;;;;2.70;99.90;;;;;;5053260;28;20042;-87
2023/01/26 04:46:12;;;;;;;0.75;0.75;;;1.70;99.90;;;;;;5044105;28;19917;-86
2023/01/26 04:48:38;;;;;;;0.70;0.70;;;1.00;99.90;;;;;;5039485;28;20037;-87
2023/01/26 04:51:06;;;;;;;0.50;0.50;;;1.00;99.90;;;;;;5046726;28;20048;-87
2023/01/26 04:53:33;;;;;;;0.60;0.60;;;1.00;99.90;;;;;;5029498;28;20033;-87
2023/01/26 04:55:58;;;;;;;;;;;1.10;99.90;;;;;;5043665;28;20116;-87
2023/01/26 04:58:24;;;;;;;1.00;1.00;;;1.10;99.90;;;;;;5048442;28;20020;-86
2023/01/26 05:00:55;;;;;;;0.60;0.60;;;1.10;99.90;;;;;;5047196;28;20470;-87
2023/01/26 05:03:22;;;;;;;0.60;0.60;;;1.20;99.90;;;;;;5047055;28;20132;-86
2023/01/26 05:05:50;;;;;;;0.88;0.88;;;1.20;99.90;;;;;;5049026;28;20048;-86
2023/01/26 05:08:17;;;;;;;0.70;0.70;;;2.20;99.90;;;;;;5050522;28;20049;-87
2023/01/26 05:10:43;;;;;;;0.57;0.57;;;1.40;99.90;;;;;;5037511;28;20507;-87
2023/01/26 05:13:09;;;;;;;;;;;1.40;99.90;;;;;;5015737;28;20065;-88
2023/01/26 05:15:35;;;;;;;0.60;0.60;;;2.80;99.90;;;;;;5034758;28;19923;-89
2023/01/26 05:18:02;;;;;;;0.60;0.60;;;1.60;99.90;;;;;;5041422;28;20044;-90
2023/01/26 05:20:28;;;;;;;0.65;0.65;;;2.90;99.90;;;;;;5036400;28;20048;-89
2023/01/26 05:22:54;;;;;;;0.60;0.60;;;1.50;99.90;;;;;;5027200;28;20049;-86
2023/01/26 05:25:20;;;;;;;1.80;1.70;;;2.00;99.90;;;;;;5047338;28;20124;-87
2023/01/26 05:27:46;;;;;;;0.60;0.60;;;1.50;99.90;;;;;;5041281;28;20574;-86
2023/01/26 05:30:12;;;;;;;0.63;0.63;;;1.60;99.90;;;;;;5034198;28;20048;-86
2023/01/26 05:32:38;;;;;;;0.80;0.80;;;1.70;99.90;;;;;;5036434;28;20088;-86
2023/01/26 05:35:05;;;;;;;0.70;0.70;;;3.00;99.90;;;;;;5023523;28;20394;-87
2023/01/26 05:37:31;;;;;;;0.70;0.70;;;2.00;99.90;;;;;;5036159;28;20053;-88
2023/01/26 05:39:57;;;;;;;0.95;0.95;;;3.10;99.90;;;;;;5017533;28;20041;-87
2023/01/26 05:42:24;;;;;;;3.92;1.15;;;3.60;99.90;;;;;;5029721;28;20669;-87
2023/01/26 05:44:49;;;;;;;0.60;0.60;;;3.70;99.90;;;;;;5050668;28;20479;-87
2023/01/26 05:47:15;;;;;;;0.60;0.60;;;2.40;99.90;;;;;;5018757;28;20037;-87
2023/01/26 05:49:44;;;;;;;0.52;0.52;;;4.00;99.90;;;;;;5046059;28;20033;-87
2023/01/26 05:52:15;;;;;;;0.80;0.80;;;3.50;99.90;;;;;;5016251;28;20041;-86
2023/01/26 05:54:42;;;;;;;0.60;0.60;;;2.50;99.90;;;;;;5048571;28;20045;-87
2023/01/26 05:57:07;;;;;;;0.70;0.70;;;2.50;99.90;;;;;;5049765;28;20056;-86
2023/01/26 05:59:33;;;;;;;0.70;0.70;;;2.60;99.90;;;;;;5028092;28;20395;-87
2023/01/26 06:01:59;;;;;;;0.70;0.70;;;2.50;99.90;;;;;;5025448;28;20036;-88
2023/01/26 06:04:26;;;;;;;0.88;0.88;;;2.60;99.90;;;;;;5013703;28;20490;-87
2023/01/26 06:06:55;;;;;;;0.55;0.55;;;2.60;99.90;;;;;;5030540;28;20537;-87
2023/01/26 06:09:22;;;;;;;0.50;0.50;;;4.10;99.90;;;;;;5013503;28;20044;-86
2023/01/26 06:11:48;;;;;;;0.57;0.57;;;3.20;99.90;;;;;;5027003;28;20080;-88
2023/01/26 06:14:14;;;;;;;0.60;0.60;;;3.00;99.90;;;;;;5029028;28;20108;-87
2023/01/26 06:16:40;;;;;;;0.70;0.70;;;2.70;99.90;;;;;;5026850;28;20080;-87
2023/01/26 06:19:06;;;;;;;0.80;0.80;;;2.80;99.90;;;;;;5035698;28;20427;-87
2023/01/26 06:21:32;;;;;;;0.50;0.50;;;2.90;99.90;;;;;;5027212;28;20041;-87
2023/01/26 06:23:58;;;;;;;0.70;0.70;;;2.90;99.90;;;;;;5045845;28;20525;-87
2023/01/26 06:26:23;;;;;;;;;;;3.10;99.90;;;;;;5023326;28;20056;-86
2023/01/26 06:28:51;;;;;;;0.50;0.50;;;3.10;99.90;;;;;;5045582;28;19917;-86
2023/01/26 06:31:17;;;;;;;0.60;0.60;;;3.30;99.90;;;;;;5025245;28;20121;-84
2023/01/26 06:33:43;;;;;;;0.50;0.50;;;3.30;99.90;;;;;;5028922;28;20495;-84
2023/01/26 06:36:10;;;;;;;0.60;0.60;;;4.40;99.90;;;;;;5043780;28;20078;-84
2023/01/26 06:38:37;;;;;;;0.73;0.73;;;3.80;99.90;;;;;;5043629;28;20410;-85
2023/01/26 06:41:05;;;;;;;0.50;0.50;;;3.50;99.90;;;;;;5045004;28;20041;-86
2023/01/26 06:43:31;;;;;;;0.60;0.60;;;3.60;99.90;;;;;;5006354;28;20029;-85
2023/01/26 06:45:58;;;;;;;0.50;0.50;;;4.30;99.90;;;;;;5026983;28;20125;-86
2023/01/26 06:48:25;;;;;;;0.52;0.52;;;3.60;99.90;;;;;;5038792;28;20579;-85
2023/01/26 06:50:51;;;;;;;0.60;0.60;;;3.60;99.90;;;;;;5026837;28;20068;-85
2023/01/26 06:53:26;;;;;;;0.60;0.60;;;3.50;99.90;;;;;;5038547;28;20041;-85
2023/01/26 06:55:52;;;;;;;0.60;0.60;;;3.60;99.90;;;;;;5043300;28;20040;-86
2023/01/26 06:58:17;;;;;;;0.60;0.60;;;4.80;99.90;;;;;;5006460;28;20399;-85
2023/01/26 07:00:43;;;;;;;0.60;0.60;;;3.50;99.90;;;;;;5022761;28;20435;-85
2023/01/26 07:03:10;;;;;;;0.60;0.60;;;3.80;99.90;;;;;;5043055;28;20064;-85
2023/01/26 07:05:36;;;;;;;0.57;0.57;;;3.50;99.90;;;;;;5042218;28;20051;-85
2023/01/26 07:08:03;;;;;;;1.00;1.00;;;3.10;99.90;;;;;;5023969;28;20045;-86
2023/01/26 07:10:29;;;;;;;0.50;0.50;;;3.00;99.90;;;;;;5007218;28;20042;-85
2023/01/26 07:12:54;;;;;;;0.60;0.60;;;2.90;99.90;;;;;;5015144;28;20044;-85
2023/01/26 07:15:20;;;;;;;0.60;0.60;;;2.90;99.90;;;;;;5028257;28;20511;-86
2023/01/26 07:17:46;;;;;;;0.57;0.57;;;4.10;99.90;;;;;;5023238;28;20073;-86
2023/01/26 07:20:12;;;;;;;0.60;0.60;;;2.80;99.90;;;;;;5047462;28;20094;-85
2023/01/26 07:22:37;;;;;;;0.70;0.70;;;2.70;99.90;;;;;;5025405;28;20384;-86
2023/01/26 07:25:03;;;;;;;0.82;0.82;;;4.40;99.90;;;;;;5038145;28;20082;-85
2023/01/26 07:27:30;;;;;;;0.70;0.70;;;2.80;99.90;;;;;;5021498;28;20065;-86
2023/01/26 07:29:56;;;;;;;0.50;0.50;;;3.90;99.90;;;;;;5049911;28;20036;-84
2023/01/26 07:32:21;;;;;;;0.55;0.55;;;4.20;99.90;;;;;;5032652;28;20072;-83
2023/01/26 07:34:48;;;;;;;0.70;0.70;;;2.80;99.90;;;;;;5031412;28;20048;-85
2023/01/26 07:37:13;;;;;;;;;;;2.80;99.90;;;;;;5047865;28;20033;-85
2023/01/26 07:39:39;;;;;;;0.63;0.63;;;2.80;99.90;;;;;;5044966;28;19917;-85
2023/01/26 07:42:05;;;;;;;0.60;0.60;;;2.70;99.90;;;;;;5014594;28;20372;-85
2023/01/26 07:44:30;;;;;;;0.70;0.70;;;4.20;99.90;;;;;;5048225;28;20041;-84
2023/01/26 07:46:57;;;;;;;0.60;0.60;;;2.60;99.90;;;;;;5046968;28;20037;-85
2023/01/26 07:49:22;;;;;;;0.50;0.50;;;2.60;99.90;;;;;;5048945;28;20033;-86
2023/01/26 07:51:48;;;;;;;0.60;0.60;;;3.40;99.90;;;;;;5048117;28;20059;-86
2023/01/26 07:54:14;;;;;;;0.60;0.60;;;3.20;99.90;;;;;;5041708;28;20386;-86
2023/01/26 07:56:40;;;;;;;0.70;0.70;;;2.40;99.90;;;;;;5033521;28;20035;-86
2023/01/26 07:59:05;;;;;;;0.70;0.70;;;2.60;99.90;;;;;;5031430;28;20032;-85
2023/01/26 08:01:31;;;;;;;0.60;0.60;;;2.70;99.90;;;;;;5030118;28;20040;-85
2023/01/26 08:03:57;;;;;;;0.55;0.55;;;2.10;99.90;;;;;;5048101;28;20033;-84
2023/01/26 08:06:23;;;;;;;0.60;0.60;;;2.20;99.90;;;;;;5044070;28;20483;-85
2023/01/26 08:08:50;;;;;;;0.60;0.60;;;2.10;99.90;;;;;;5036171;28;20056;-86
2023/01/26 08:11:18;;;;;;;0.60;0.60;;;2.50;99.90;;;;;;5052394;28;20422;-85
2023/01/26 08:13:44;;;;;;;0.60;0.60;;;1.90;99.90;;;;;;5052559;28;20045;-85
2023/01/26 08:16:11;;;;;;;0.70;0.70;;;1.90;99.90;;;;;;5031190;28;20052;-89
2023/01/26 08:18:37;;;;;;;0.60;0.60;;;2.70;99.90;;;;;;5021204;28;20041;-86
2023/01/26 08:21:04;;;;;;;0.50;0.50;;;1.80;99.90;;;;;;5051848;28;20041;-87
2023/01/26 08:23:29;;;;;;;0.60;0.60;;;1.80;99.90;;;;;;5042498;28;20037;-86
2023/01/26 08:26:00;;;;;;;0.60;0.60;;;1.80;99.90;;;;;;5033137;28;20091;-86
2023/01/26 08:28:26;;;;;;;0.80;0.80;;;2.20;99.90;;;;;;5035720;28;20380;-87
2023/01/26 08:30:51;;;;;;;0.70;0.70;;;1.80;99.90;;;;;;5051356;28;20052;-87
2023/01/26 08:33:17;;;;;;;0.60;0.60;;;1.80;99.90;;;;;;5055633;28;20079;-86
2023/01/26 08:35:43;;;;;;;0.70;0.70;;;2.30;99.90;;;;;;5049721;28;20475;-86
2023/01/26 08:38:09;;;;;;;0.70;0.70;;;1.90;99.90;;;;;;5034834;28;20059;-86
2023/01/26 08:40:36;;;;;;;0.65;0.65;;;2.00;99.90;;;;;;5027615;28;20036;-86
2023/01/26 08:43:02;;;;;;;1.77;1.67;;;3.00;99.90;;;;;;5035364;28;20049;-86
2023/01/26 08:45:28;;;;;;;0.80;0.80;;;2.10;99.90;;;;;;5035544;28;20142;-86
2023/01/26 08:47:54;;;;;;;0.60;0.60;;;2.20;99.90;;;;;;5046842;28;20033;-87
2023/01/26 08:50:20;;;;;;;;;;;2.80;99.90;;;;;;5053316;28;20073;-86
2023/01/26 08:52:46;;;;;;;0.63;0.63;;;2.30;99.90;;;;;;5049446;28;21269;-87
2023/01/26 08:55:12;;;;;;;1.27;1.27;;;2.50;99.90;;;;;;5033634;28;20552;-87
2023/01/26 08:57:38;;;;;;;0.60;0.60;;;3.90;99.90;;;;;;5045712;28;20044;-86
2023/01/26 09:00:04;;;;;;;0.60;0.60;;;2.80;99.90;;;;;;5056212;28;20045;-86
2023/01/26 09:02:29;;;;;;;;;;;2.70;99.90;;;;;;5046148;28;20044;-87
2023/01/26 09:04:55;;;;;;;0.60;0.60;;;2.70;99.90;;;;;;5012811;28;19924;-87
2023/01/26 09:07:21;;;;;;;0.50;0.50;;;2.80;99.90;;;;;;5028574;28;20547;-87
2023/01/26 09:09:46;;;;;;;0.60;0.60;;;2.90;99.90;;;;;;5024995;28;20071;-85
2023/01/26 09:12:12;;;;;;;0.65;0.65;;;3.60;99.90;;;;;;5016547;28;20041;-85
2023/01/26 09:14:38;;;;;;;0.55;0.55;;;3.50;99.90;;;;;;5012096;28;20045;-85
2023/01/26 09:17:03;;;;;;;0.68;0.68;;;3.50;99.90;;;;;;5029729;28;20044;-86
2023/01/26 09:19:29;;;;;;;0.60;0.60;;;3.70;99.90;;;;;;5053575;28;20033;-86
2023/01/26 09:21:55;;;;;;;0.60;0.60;;;3.60;99.90;;;;;;5057011;28;20471;-86
2023/01/26 09:24:21;;;;;;;0.73;0.73;;;3.70;99.90;;;;;;5034229;28;20045;-87
2023/01/26 09:26:47;;;;;;;0.60;0.60;;;3.80;99.90;;;;;;5029941;28;20064;-86
2023/01/26 09:29:13;;;;;;;0.65;0.65;;;3.80;99.90;;;;;;5067604;28;20041;-87
2023/01/26 09:31:39;;;;;;;0.65;0.65;;;3.80;99.90;;;;;;5045506;28;20045;-86
2023/01/26 09:34:05;;;;;;;;;;;4.00;99.90;;;;;;5043849;28;20048;-87
2023/01/26 09:36:30;;;;;;;1.50;0.80;;;4.10;99.90;;;;;;5032761;28;20582;-87
2023/01/26 09:38:56;;;;;;;0.50;0.50;;;4.20;99.90;;;;;;5034504;28;20036;-88
2023/01/26 09:41:47;;;;;;;0.50;0.50;;;4.30;99.90;;;;;;5029619;28;20624;-86
2023/01/26 09:44:21;;;;;;;0.57;0.57;;;4.40;99.90;;;;;;5025881;28;20056;-87
2023/01/26 09:47:02;;;;;;;0.52;0.52;;;4.50;99.90;;;;;;5041322;28;20532;-88
2023/01/26 09:49:42;;;;;;;0.50;0.50;;;4.90;99.90;;;;;;5028031;28;20047;-87
2023/01/26 09:52:26;;;;;;;0.60;0.60;;;4.90;99.90;;;;;;5028119;28;20060;-87
2023/01/26 09:54:56;;;;;;;0.60;0.60;;;4.90;99.90;;;;;;5047162;28;20048;-87
2023/01/26 09:57:37;;;;;;;0.60;0.60;;;5.00;99.90;;;;;;5039331;28;20036;-87
2023/01/26 10:00:29;;;;;;;0.50;0.50;;;5.00;99.90;;;;;;5048942;28;20044;-86
2023/01/26 10:03:13;;;;;;;0.50;0.50;;;5.10;99.90;;;;;;5040799;28;20072;-87
2023/01/26 10:06:12;;;;;;;0.60;0.60;;;5.30;99.90;;;;;;5047739;28;20044;-87
2023/01/26 10:08:39;;;;;;;0.45;0.45;;;5.50;99.90;;;;;;5030440;28;20144;-88
2023/01/26 10:11:24;;;;;;;0.65;0.65;;;5.60;99.90;;;;;;5049645;28;20084;-87
2023/01/26 10:13:56;;;;;;;0.50;0.50;;;5.60;99.90;;;;;;5027988;28;20045;-87
2023/01/26 10:16:23;;;;;;;0.60;0.60;;;5.60;99.90;;;;;;5044450;28;20784;-87
2023/01/26 10:19:00;;;;;;;0.60;0.60;;;5.70;99.90;;;;;;5046127;28;20071;-87
2023/01/26 10:21:31;;;;;;;0.40;0.40;;;5.80;99.90;;;;;;5042107;28;20525;-87
2023/01/26 10:24:00;;;;;;;0.50;0.50;;;5.90;99.90;;;;;;5042536;28;20071;-87
2023/01/26 10:26:30;;;;;;;0.60;0.60;;;6.00;99.90;;;;;;5048849;28;20045;-87
2023/01/26 10:28:57;;;;;;;0.50;0.50;;;6.00;99.90;;;;;;5037442;28;20041;-88
2023/01/26 10:31:26;;;;;;;0.57;0.57;;;6.20;99.90;;;;;;5049614;28;20037;-87
2023/01/26 10:33:58;;;;;;;0.50;0.50;;;6.40;99.90;;;;;;5039264;28;20048;-87
2023/01/26 10:36:27;;;;;;;0.45;0.45;;;6.20;99.90;;;;;;5042896;28;20082;-87
2023/01/26 10:39:01;;;;;;;0.40;0.40;;;6.20;99.90;;;;;;5026612;28;20103;-86
2023/01/26 10:41:28;;;;;;;0.40;0.40;;;6.20;99.90;;;;;;5034949;28;20132;-87
2023/01/26 10:43:57;;;;;;;0.40;0.40;;;6.20;99.90;;;;;;5047106;28;20052;-87
2023/01/26 10:46:29;;;;;;;0.82;0.82;;;6.20;99.90;;;;;;5043019;28;20045;-86
2023/01/26 10:49:00;;;;;;;0.40;0.40;;;6.30;99.90;;;;;;5039562;28;20045;-87
2023/01/26 10:51:34;;;;;;;0.45;0.45;;;6.40;99.90;;;;;;5047986;28;20037;-86
2023/01/26 10:54:26;;;;;;;0.55;0.55;;;6.60;99.90;;;;;;5020990;28;20051;-87
2023/01/26 10:57:24;;;;;;;0.40;0.40;;;6.90;99.90;;;;;;5042692;28;20060;-87
2023/01/26 11:00:18;;;;;;;0.40;0.40;;;6.90;99.90;;;;;;5019852;28;20056;-91
2023/01/26 11:02:58;;;;;;;0.40;0.40;;;7.00;99.90;;;;;;5036814;28;20115;-92
2023/01/26 11:05:25;;;;;;;0.47;0.47;;;7.00;99.90;;;;;;5051620;28;20049;-88
2023/01/26 11:08:05;;;;;;;0.30;0.30;;;6.90;99.90;;;;;;5030820;28;20095;-87
2023/01/26 11:10:51;;;;;;;1.60;1.60;;;6.80;99.90;;;;;;5025241;28;20471;-87
2023/01/26 11:13:19;;;;;;;0.70;0.70;;;6.70;99.90;;;;;;5013866;28;20373;-88
2023/01/26 11:16:10;;;;;;;0.30;0.30;;;6.70;99.90;;;;;;5050416;28;20522;-87
2023/01/26 11:18:54;;;;;;;0.50;0.50;;;6.80;99.90;;;;;;5048148;28;20111;-87
2023/01/26 11:21:52;;;;;;;0.40;0.40;;;7.00;99.90;;;;;;5044318;28;20551;-87
2023/01/26 11:24:25;;;;;;;0.60;0.60;;;7.10;99.90;;;;;;5048497;28;20025;-88
2023/01/26 11:27:09;;;;;;;0.50;0.50;;;7.40;99.90;;;;;;5042030;28;20041;-87
2023/01/26 11:29:50;;;;;;;0.50;0.50;;;7.50;99.90;;;;;;5046393;28;20045;-87
2023/01/26 11:32:24;;;;;;;0.60;0.60;;;8.80;99.90;;;;;;5039495;28;21085;-87
2023/01/26 11:35:04;;;;;;;0.40;0.40;;;7.70;99.90;;;;;;5036711;28;20398;-88
2023/01/26 11:37:41;;;;;;;0.50;0.50;;;7.80;99.90;;;;;;5019290;28;20497;-88
2023/01/26 11:40:30;;;;;;;;;;;7.90;99.90;;;;;;5031602;28;20485;-88
2023/01/26 11:43:16;;;;;;;0.40;0.40;;;7.80;99.90;;;;;;5033862;28;19916;-88
2023/01/26 11:46:05;;;;;;;0.50;0.50;;;7.70;99.90;;;;;;5048895;28;20053;-87
2023/01/26 11:48:45;;;;;;;0.50;0.50;;;7.70;99.90;;;;;;5046705;28;20120;-88
2023/01/26 11:51:33;;;;;;;0.40;0.40;;;7.60;99.90;;;;;;5039923;28;20500;-88
2023/01/26 11:54:09;;;;;;;0.50;0.50;;;7.60;99.90;;;;;;5050578;28;20037;-88
2023/01/26 11:57:03;;;;;;;0.60;0.60;;;7.50;99.90;;;;;;5036953;28;20041;-88
2023/01/26 11:59:39;;;;;;;0.50;0.50;;;7.50;99.90;;;;;;5042557;28;20029;-88
2023/01/26 12:02:28;;;;;;;0.50;0.50;;;7.50;99.90;;;;;;5030545;28;20053;-88
2023/01/26 12:05:09;;;;;;;0.50;0.50;;;7.50;99.90;;;;;;5052388;28;20349;-88
2023/01/26 12:07:55;;;;;;;0.50;0.50;;;7.50;99.90;;;;;;5052461;28;20076;-88
2023/01/26 12:10:50;;;;;;;0.30;0.30;;;7.60;99.90;;;;;;5027214;28;20034;-88
2023/01/26 12:13:22;;;;;;;0.40;0.40;;;7.60;99.90;;;;;;5029101;28;20064;-88
2023/01/26 12:15:55;;;;;;;0.80;0.80;;;7.70;99.90;;;;;;5051090;28;20041;-88
2023/01/26 12:18:40;;;;;;;0.60;0.60;;;7.70;99.90;;;;;;5032035;28;20041;-89
2023/01/26 12:21:10;;;;;;;0.50;0.50;;;7.80;99.90;;;;;;5048829;28;20052;-88
2023/01/26 12:23:53;;;;;;;0.40;0.40;;;7.80;99.90;;;;;;5029075;28;20040;-89
2023/01/26 12:26:25;;;;;;;0.82;0.82;;;7.80;99.90;;;;;;5049831;28;20044;-88
2023/01/26 12:29:08;;;;;;;0.50;0.50;;;7.70;99.90;;;;;;5051774;28;20535;-88
2023/01/26 12:31:49;;;;;;;0.40;0.40;;;7.70;99.90;;;;;;5031137;28;20038;-87
2023/01/26 12:34:15;;;;;;;0.52;0.52;;;7.70;99.90;;;;;;5036083;28;20094;-89
2023/01/26 12:36:40;;;;;;;;;;;7.30;99.90;;;;;;5011955;28;20068;-89
2023/01/26 12:39:19;;;;;;;0.40;0.40;;;7.70;99.90;;;;;;5047745;28;20417;-88
2023/01/26 12:42:00;;;;;;;0.40;0.40;;;7.70;99.90;;;;;;5044019;28;20103;-88
2023/01/26 12:45:01;;;;;;;0.57;0.57;;;7.70;99.90;;;;;;5044996;28;20072;-87
2023/01/26 12:47:38;;;;;;;0.50;0.50;;;7.70;99.90;;;;;;4986288;28;20492;-88
2023/01/26 12:50:38;;;;;;;0.45;0.45;;;7.60;99.90;;;;;;5048719;28;20053;-88
2023/01/26 12:53:17;;;;;;;0.50;0.50;;;7.70;99.90;;;;;;5027476;28;20102;-88
2023/01/26 12:55:59;;;;;;;1.42;1.08;;;7.70;99.90;;;;;;5039016;28;20029;-87
2023/01/26 12:58:33;;;;;;;0.60;0.60;;;7.70;99.90;;;;;;5050853;28;20087;-88
2023/01/26 13:01:11;;;;;;;0.63;0.63;;;7.70;99.90;;;;;;5047032;28;20041;-88
2023/01/26 13:03:42;;;;;;;0.60;0.60;;;7.70;99.90;;;;;;5051270;28;20051;-88
2023/01/26 13:06:13;;;;;;;0.50;0.50;;;7.60;99.90;;;;;;5031488;28;20048;-89
2023/01/26 13:08:52;;;;;;;0.40;0.40;;;7.60;99.90;;;;;;5050085;28;20041;-89
2023/01/26 13:11:49;;;;;;;0.50;0.50;;;7.60;99.90;;;;;;5049696;28;20073;-90
2023/01/26 13:14:24;;;;;;;0.60;0.60;;;7.60;99.90;;;;;;5044120;28;20049;-87
2023/01/26 13:16:50;;;;;;;0.50;0.50;;;7.60;99.90;;;;;;5034291;28;20391;-88
2023/01/26 13:19:50;;;;;;;0.40;0.40;;;7.50;99.90;;;;;;5028956;28;20036;-88
2023/01/26 13:22:25;;;;;;;0.40;0.40;;;7.50;99.90;;;;;;5048626;28;20091;-90
2023/01/26 13:25:28;;;;;;;0.50;0.50;;;7.50;99.90;;;;;;5065511;28;20057;-87
2023/01/26 13:28:11;;;;;;;0.30;0.30;;;7.60;99.90;;;;;;5059372;28;20053;-90
2023/01/26 13:30:44;;;;;;;0.60;0.60;;;7.40;99.90;;;;;;5058521;28;20125;-88
2023/01/26 13:33:13;;;;;;;0.40;0.40;;;7.40;99.90;;;;;;5008937;28;20510;-86
2023/01/26 13:35:39;;;;;;;0.52;0.52;;;7.40;99.90;;;;;;5071895;28;20052;-87
2023/01/26 13:38:39;;;;;;;0.47;0.47;;;7.40;99.90;;;;;;5070374;28;20041;-88
2023/01/26 13:41:19;;;;;;;0.98;0.95;;;7.30;99.90;;;;;;5053269;28;20049;-90
2023/01/26 13:44:13;;;;;;;0.60;0.60;;;7.30;99.90;;;;;;5030910;28;20064;-88
2023/01/26 13:46:44;;;;;;;0.60;0.60;;;7.30;99.90;;;;;;5016563;28;20045;-86
2023/01/26 13:49:35;;;;;;;0.50;0.50;;;7.20;99.90;;;;;;5044276;28;20033;-87
2023/01/26 13:52:02;;;;;;;1.17;1.17;;;7.20;99.90;;;;;;5056235;28;20417;-87
2023/01/26 13:54:28;;;;;;;1.70;1.67;;;7.20;99.90;;;;;;5050814;28;20029;-88
2023/01/26 13:57:06;;;;;;;0.50;0.50;;;7.10;99.90;;;;;;5014148;28;20033;-88
2023/01/26 13:59:33;;;;;;;0.50;0.50;;;7.10;99.90;;;;;;5041089;28;20080;-87
2023/01/26 14:01:59;;;;;;;0.40;0.40;;;7.10;99.90;;;;;;5028032;28;20043;-87
2023/01/26 14:04:30;;;;;;;0.52;0.52;;;7.20;99.90;;;;;;5045680;28;20092;-87